Time;durP1;ratioP1;P1;durP2;ratioP2;P2;SDS_P1;SDS_P2;PMS_P1;PMS_P2;Temp;Humidity;BMP_temperature;BMP_pressure;BME280_temperature;BME280_humidity;BME280_pressure;Samples;Min_cycle;Max_cycle;Signal;HPM_P1;HPM_P2
2021/07/24 00:00:36;;;;;;;15.20;9.57;;;17.20;99.90;;;;;;5027786;28;20041;-73
2021/07/24 00:03:02;;;;;;;13.70;9.15;;;17.10;99.90;;;;;;5020228;28;20036;-73
2021/07/24 00:05:27;;;;;;;12.73;9.07;;;17.10;99.90;;;;;;5028428;28;20029;-72
2021/07/24 00:07:53;;;;;;;12.73;9.13;;;17.00;99.90;;;;;;5030629;28;20069;-72
2021/07/24 00:10:18;;;;;;;13.95;9.35;;;17.00;99.90;;;;;;5029963;28;20879;-73
2021/07/24 00:12:44;;;;;;;19.73;9.25;;;17.00;99.90;;;;;;5028048;28;20449;-72
2021/07/24 00:15:10;;;;;;;13.75;9.18;;;17.00;99.90;;;;;;5028157;28;20035;-73
2021/07/24 00:17:35;;;;;;;14.13;8.88;;;17.00;99.90;;;;;;5021290;28;20648;-73
2021/07/24 00:20:01;;;;;;;14.75;9.50;;;17.00;99.90;;;;;;5025104;28;20025;-72
2021/07/24 00:22:26;;;;;;;13.93;9.38;;;16.90;99.90;;;;;;5022737;28;20028;-73
2021/07/24 00:24:51;;;;;;;13.43;9.40;;;16.90;99.90;;;;;;5029145;28;20029;-73
2021/07/24 00:27:17;;;;;;;13.32;9.13;;;16.90;99.90;;;;;;5019732;28;20041;-73
2021/07/24 00:29:42;;;;;;;12.43;9.07;;;16.90;99.90;;;;;;5024307;28;20037;-73
2021/07/24 00:32:08;;;;;;;13.40;8.98;;;16.90;99.90;;;;;;5027021;28;20025;-72
2021/07/24 00:34:33;;;;;;;14.05;9.73;;;16.80;99.90;;;;;;5027806;28;20116;-72
2021/07/24 00:36:59;;;;;;;15.27;9.82;;;16.80;99.90;;;;;;5027325;28;20029;-72
2021/07/24 00:39:25;;;;;;;13.20;9.30;;;16.70;99.90;;;;;;5029003;28;20377;-73
2021/07/24 00:42:07;;;;;;;11.70;8.35;;;16.70;99.90;;;;;;5027732;28;20517;-73
2021/07/24 00:44:32;;;;;;;12.48;9.55;;;16.70;99.90;;;;;;5025626;28;20066;-73
2021/07/24 00:47:01;;;;;;;13.07;9.15;;;16.60;99.90;;;;;;5024639;28;20022;-73
2021/07/24 00:49:27;;;;;;;12.95;9.30;;;16.60;99.90;;;;;;5020197;28;20033;-73
2021/07/24 00:51:55;;;;;;;11.63;9.07;;;16.60;99.90;;;;;;5027853;28;20021;-74
2021/07/24 00:54:21;;;;;;;11.60;8.85;;;16.60;99.90;;;;;;5026454;28;20683;-74
2021/07/24 00:56:49;;;;;;;14.73;8.75;;;16.60;99.90;;;;;;5022821;28;20033;-74
2021/07/24 00:59:14;;;;;;;12.38;9.25;;;16.50;99.90;;;;;;5026531;28;20036;-74
2021/07/24 01:01:42;;;;;;;14.70;8.90;;;16.50;99.90;;;;;;5027131;28;20033;-73
2021/07/24 01:04:09;;;;;;;13.45;8.50;;;16.50;99.90;;;;;;5026592;28;20029;-73
2021/07/24 01:06:35;;;;;;;14.93;9.60;;;16.50;99.90;;;;;;5027146;28;20440;-74
2021/07/24 01:09:01;;;;;;;12.50;8.30;;;16.50;99.90;;;;;;5029029;28;20026;-73
2021/07/24 01:11:26;;;;;;;10.77;8.10;;;16.40;99.90;;;;;;5027716;28;20032;-74
2021/07/24 01:13:52;;;;;;;11.68;8.65;;;16.40;99.90;;;;;;5021702;28;20087;-73
2021/07/24 01:16:17;;;;;;;13.23;9.07;;;16.40;99.90;;;;;;5024406;28;20432;-73
2021/07/24 01:18:43;;;;;;;9.90;8.00;;;16.40;99.90;;;;;;5024925;28;20900;-73
2021/07/24 01:21:10;;;;;;;14.32;9.07;;;16.40;99.90;;;;;;5021764;28;20089;-74
2021/07/24 01:23:37;;;;;;;15.38;8.50;;;16.30;99.90;;;;;;5026009;28;20037;-73
2021/07/24 01:26:04;;;;;;;12.27;8.85;;;16.30;99.90;;;;;;5026110;28;20064;-74
2021/07/24 01:28:35;;;;;;;12.02;9.18;;;16.30;99.90;;;;;;5024555;28;20027;-74
2021/07/24 01:31:05;;;;;;;11.18;8.73;;;16.30;99.90;;;;;;5022233;28;20491;-74
2021/07/24 01:33:32;;;;;;;15.20;9.27;;;16.30;99.90;;;;;;5024146;28;20033;-74
2021/07/24 01:35:58;;;;;;;12.32;8.75;;;16.30;99.90;;;;;;5027879;28;20022;-74
2021/07/24 01:38:23;;;;;;;13.63;8.82;;;16.20;99.90;;;;;;5025071;28;20022;-74
2021/07/24 01:40:49;;;;;;;12.00;8.55;;;16.20;99.90;;;;;;5028994;28;20111;-73
2021/07/24 01:43:15;;;;;;;12.90;8.85;;;16.20;99.90;;;;;;5019096;28;20488;-73
2021/07/24 01:45:41;;;;;;;11.48;8.38;;;16.20;99.90;;;;;;5027097;28;20044;-73
2021/07/24 01:48:34;;;;;;;12.85;8.93;;;16.20;99.90;;;;;;5023365;28;20040;-74
2021/07/24 01:53:37;;;;;;;12.23;8.70;;;16.10;99.90;;;;;;5014973;28;20047;-74
2021/07/24 01:56:05;;;;;;;13.30;8.60;;;16.10;99.90;;;;;;5026217;28;20021;-73
2021/07/24 01:58:35;;;;;;;14.55;8.95;;;16.10;99.90;;;;;;5018571;28;20029;-73
2021/07/24 02:01:03;;;;;;;12.43;8.70;;;16.10;99.90;;;;;;5020144;28;20033;-74
2021/07/24 02:03:42;;;;;;;14.00;8.95;;;16.00;99.90;;;;;;5016730;28;20056;-74
2021/07/24 02:06:13;;;;;;;14.23;9.13;;;16.00;99.90;;;;;;5020139;28;20404;-74
2021/07/24 02:08:43;;;;;;;13.30;9.02;;;16.00;99.90;;;;;;5018060;28;20030;-74
2021/07/24 02:11:09;;;;;;;11.77;8.52;;;16.00;99.90;;;;;;5017282;28;20030;-74
2021/07/24 02:13:34;;;;;;;11.18;8.32;;;16.00;99.90;;;;;;5026132;28;20028;-74
2021/07/24 02:16:00;;;;;;;10.50;8.43;;;16.00;99.90;;;;;;5020291;28;20040;-74
2021/07/24 02:18:27;;;;;;;11.68;7.97;;;15.90;99.90;;;;;;5027330;28;20648;-74
2021/07/24 02:20:53;;;;;;;11.75;8.13;;;15.90;99.90;;;;;;5021265;28;20033;-74
2021/07/24 02:23:19;;;;;;;14.23;8.40;;;15.90;99.90;;;;;;5026731;28;20026;-74
2021/07/24 02:25:45;;;;;;;12.35;8.35;;;15.90;99.90;;;;;;5018183;28;20072;-74
2021/07/24 02:28:10;;;;;;;11.57;8.00;;;16.00;99.90;;;;;;5021205;28;20532;-74
2021/07/24 02:30:36;;;;;;;11.75;8.57;;;15.90;99.90;;;;;;5027617;28;20034;-74
2021/07/24 02:33:01;;;;;;;14.10;8.20;;;15.90;99.90;;;;;;5026753;28;20023;-74
2021/07/24 02:35:27;;;;;;;14.05;7.97;;;15.90;99.90;;;;;;5023393;28;20040;-73
2021/07/24 02:37:53;;;;;;;11.45;8.43;;;15.80;99.90;;;;;;5027054;28;20511;-74
2021/07/24 02:40:20;;;;;;;11.85;8.02;;;15.80;99.90;;;;;;5021698;28;20441;-74
2021/07/24 02:42:45;;;;;;;12.43;7.68;;;15.80;99.90;;;;;;5025521;28;20660;-74
2021/07/24 02:45:11;;;;;;;10.93;8.00;;;15.80;99.90;;;;;;5021428;28;20042;-74
2021/07/24 02:47:36;;;;;;;10.60;7.70;;;15.80;99.90;;;;;;5024639;28;20574;-74
2021/07/24 02:50:02;;;;;;;10.98;7.88;;;15.80;99.90;;;;;;5025070;28;20412;-73
2021/07/24 02:52:28;;;;;;;11.18;7.97;;;15.80;99.90;;;;;;5025691;28;20030;-74
2021/07/24 02:54:53;;;;;;;12.68;8.48;;;15.70;99.90;;;;;;5024807;28;20018;-74
2021/07/24 02:57:19;;;;;;;14.32;8.38;;;15.70;99.90;;;;;;5025032;28;20033;-73
2021/07/24 02:59:45;;;;;;;13.35;8.25;;;15.70;99.90;;;;;;5026312;28;20034;-74
2021/07/24 03:02:12;;;;;;;15.85;8.80;;;15.70;99.90;;;;;;5026363;28;20030;-74
2021/07/24 03:04:37;;;;;;;13.25;7.97;;;15.70;99.90;;;;;;5023879;28;20075;-73
2021/07/24 03:07:03;;;;;;;10.98;7.80;;;15.60;99.90;;;;;;5027077;28;20042;-74
2021/07/24 03:09:29;;;;;;;11.75;7.90;;;15.60;99.90;;;;;;5024351;28;20026;-74
2021/07/24 03:11:54;;;;;;;11.68;8.10;;;15.60;99.90;;;;;;5027017;28;20025;-73
2021/07/24 03:14:20;;;;;;;11.25;8.10;;;15.60;99.90;;;;;;5016139;28;20061;-74
2021/07/24 03:16:45;;;;;;;13.13;8.13;;;15.60;99.90;;;;;;5018296;28;20061;-74
2021/07/24 03:19:10;;;;;;;11.75;7.57;;;15.60;99.90;;;;;;5016108;28;20045;-74
2021/07/24 03:21:36;;;;;;;11.95;8.20;;;15.60;99.90;;;;;;5020464;28;20504;-73
2021/07/24 03:24:01;;;;;;;16.00;8.23;;;15.60;99.90;;;;;;5026633;28;20025;-73
2021/07/24 03:26:27;;;;;;;10.35;7.97;;;15.60;99.90;;;;;;5026716;28;20071;-74
2021/07/24 03:28:52;;;;;;;11.52;8.35;;;15.50;99.90;;;;;;5024875;28;20498;-74
2021/07/24 03:31:18;;;;;;;11.88;8.10;;;15.50;99.90;;;;;;5028736;28;20034;-73
2021/07/24 03:33:43;;;;;;;12.35;8.80;;;15.60;99.90;;;;;;5017406;28;20036;-74
2021/07/24 03:36:09;;;;;;;10.57;8.10;;;15.60;99.90;;;;;;5028640;28;20053;-74
2021/07/24 03:38:34;;;;;;;15.60;8.52;;;15.60;99.90;;;;;;5025919;28;20578;-73
2021/07/24 03:41:03;;;;;;;13.10;8.27;;;15.60;99.90;;;;;;5027948;28;20052;-74
2021/07/24 03:43:30;;;;;;;13.52;8.80;;;15.60;99.90;;;;;;5020822;28;20496;-74
2021/07/24 03:45:55;;;;;;;13.85;8.30;;;15.60;99.90;;;;;;5026407;28;20488;-73
2021/07/24 03:48:20;;;;;;;11.55;7.93;;;15.60;99.90;;;;;;5027872;28;20036;-74
2021/07/24 03:50:46;;;;;;;12.77;8.85;;;15.60;99.90;;;;;;5027289;28;20120;-73
2021/07/24 03:53:12;;;;;;;15.63;8.73;;;15.60;99.90;;;;;;5027130;28;20021;-74
2021/07/24 03:55:38;;;;;;;12.05;8.85;;;15.60;99.90;;;;;;5029094;28;20060;-73
2021/07/24 03:58:03;;;;;;;11.27;7.97;;;15.60;99.90;;;;;;5028364;28;20021;-74
2021/07/24 04:00:41;;;;;;;13.70;8.93;;;15.60;99.90;;;;;;5030217;28;20036;-74
2021/07/24 04:03:06;;;;;;;13.23;9.20;;;15.70;99.90;;;;;;5023349;28;20030;-74
2021/07/24 04:05:38;;;;;;;11.50;8.75;;;15.70;99.90;;;;;;5028184;28;20029;-73
2021/07/24 04:08:05;;;;;;;16.33;9.57;;;15.60;99.90;;;;;;5029231;28;20120;-74
2021/07/24 04:10:33;;;;;;;14.73;9.23;;;15.70;99.90;;;;;;5029253;28;20500;-74
2021/07/24 04:12:59;;;;;;;14.07;9.52;;;15.70;99.90;;;;;;5022724;28;20025;-74
2021/07/24 04:15:24;;;;;;;12.80;9.25;;;15.70;99.90;;;;;;5018459;28;20052;-74
2021/07/24 04:17:51;;;;;;;12.50;9.30;;;15.70;99.90;;;;;;5019478;28;20051;-73
2021/07/24 04:20:20;;;;;;;16.40;9.55;;;15.70;99.90;;;;;;5016867;28;20025;-74
2021/07/24 04:22:46;;;;;;;15.48;9.50;;;15.80;99.90;;;;;;5013227;28;20026;-74
2021/07/24 04:25:11;;;;;;;13.38;9.60;;;15.80;99.90;;;;;;5022557;28;20415;-74
2021/07/24 04:27:37;;;;;;;13.95;9.95;;;15.80;99.90;;;;;;5025892;28;20032;-74
2021/07/24 04:30:03;;;;;;;14.00;9.70;;;15.90;99.90;;;;;;5026989;28;20539;-74
2021/07/24 04:32:28;;;;;;;17.20;9.70;;;15.90;99.90;;;;;;5023949;28;20030;-74
2021/07/24 04:34:54;;;;;;;16.38;10.65;;;15.90;99.90;;;;;;5027969;28;20039;-74
2021/07/24 04:37:22;;;;;;;15.45;10.30;;;15.90;99.90;;;;;;5022241;28;20049;-74
2021/07/24 04:39:47;;;;;;;18.85;10.02;;;16.00;99.90;;;;;;5027357;28;20025;-74
2021/07/24 04:42:13;;;;;;;22.65;10.60;;;16.00;99.90;;;;;;5018601;28;20499;-74
2021/07/24 04:44:39;;;;;;;15.10;10.15;;;16.00;99.90;;;;;;5027312;28;20031;-74
2021/07/24 04:47:04;;;;;;;15.75;10.50;;;16.10;99.90;;;;;;5026834;28;20032;-74
2021/07/24 04:49:31;;;;;;;16.50;11.23;;;16.10;99.90;;;;;;5026066;28;20079;-74
2021/07/24 04:51:58;;;;;;;13.52;10.70;;;16.20;99.90;;;;;;5018847;28;20058;-74
2021/07/24 04:54:24;;;;;;;15.23;10.48;;;16.20;99.90;;;;;;5023276;28;20491;-74
2021/07/24 04:56:50;;;;;;;16.25;10.77;;;16.20;99.90;;;;;;5023264;28;20120;-73
2021/07/24 04:59:16;;;;;;;17.10;10.70;;;16.30;99.90;;;;;;5026613;28;20032;-72
2021/07/24 05:01:44;;;;;;;16.88;10.18;;;16.30;99.90;;;;;;5024331;28;20029;-73
2021/07/24 05:04:11;;;;;;;16.90;10.98;;;16.40;99.90;;;;;;5023319;28;20059;-73
2021/07/24 05:06:37;;;;;;;17.13;10.23;;;16.40;99.90;;;;;;5023511;28;20102;-73
2021/07/24 05:09:08;;;;;;;14.73;10.35;;;16.50;99.90;;;;;;5024004;28;20025;-73
2021/07/24 05:11:34;;;;;;;14.75;10.48;;;16.50;99.90;;;;;;5026389;28;20052;-72
2021/07/24 05:14:00;;;;;;;17.13;11.23;;;16.60;99.90;;;;;;5027608;28;20086;-73
2021/07/24 05:16:26;;;;;;;20.23;11.43;;;16.60;99.90;;;;;;5023431;28;20696;-73
2021/07/24 05:18:51;;;;;;;16.33;10.98;;;16.70;99.90;;;;;;5022865;28;20116;-72
2021/07/24 05:21:20;;;;;;;18.77;10.88;;;16.80;99.90;;;;;;5026876;28;20144;-73
2021/07/24 05:23:45;;;;;;;16.02;10.90;;;16.80;99.90;;;;;;5022768;28;20108;-73
2021/07/24 05:26:14;;;;;;;18.73;10.80;;;16.80;99.90;;;;;;5025775;28;20434;-72
2021/07/24 05:28:40;;;;;;;18.48;11.40;;;16.90;99.90;;;;;;5017730;28;20043;-73
2021/07/24 05:31:17;;;;;;;17.52;10.93;;;17.00;99.90;;;;;;5025987;28;20447;-73
2021/07/24 05:33:42;;;;;;;18.75;11.38;;;17.10;99.90;;;;;;5025966;28;20025;-82
2021/07/24 05:36:08;;;;;;;20.65;10.70;;;17.10;99.90;;;;;;5026339;28;20068;-75
2021/07/24 05:38:33;;;;;;;17.20;11.27;;;17.20;99.90;;;;;;5021523;28;20038;-75
2021/07/24 05:41:02;;;;;;;15.05;10.23;;;17.30;99.90;;;;;;5027899;28;20488;-76
2021/07/24 05:43:27;;;;;;;18.58;11.13;;;17.30;99.90;;;;;;5025073;28;20022;-76
2021/07/24 05:45:53;;;;;;;18.13;10.43;;;17.40;99.90;;;;;;5016819;28;20388;-76
2021/07/24 05:48:18;;;;;;;17.33;10.50;;;17.50;99.90;;;;;;5024413;28;20037;-75
2021/07/24 05:50:43;;;;;;;15.80;10.48;;;17.60;99.90;;;;;;5024824;28;20040;-75
2021/07/24 05:53:09;;;;;;;17.48;10.77;;;17.60;99.90;;;;;;5021299;28;20025;-75
2021/07/24 05:55:34;;;;;;;17.77;11.05;;;17.70;99.90;;;;;;5028333;28;20025;-77
2021/07/24 05:58:00;;;;;;;16.85;10.60;;;17.80;99.90;;;;;;5023942;28;20057;-75
2021/07/24 06:00:26;;;;;;;16.00;9.88;;;17.90;99.90;;;;;;5025049;28;20044;-75
2021/07/24 06:02:51;;;;;;;13.60;10.05;;;17.90;99.90;;;;;;5025863;28;20022;-75
2021/07/24 06:05:17;;;;;;;18.35;11.10;;;18.00;99.90;;;;;;5024581;28;20551;-74
2021/07/24 06:07:42;;;;;;;16.08;10.05;;;18.00;99.90;;;;;;5023198;28;20425;-74
2021/07/24 06:10:29;;;;;;;18.33;10.30;;;18.10;99.90;;;;;;5028680;28;20045;-75
2021/07/24 06:12:55;;;;;;;14.10;9.05;;;18.20;99.90;;;;;;5021107;28;20038;-78
2021/07/24 06:15:20;;;;;;;9.55;7.40;;;18.30;99.90;;;;;;5026046;28;20431;-77
2021/07/24 06:17:46;;;;;;;15.88;9.65;;;18.40;99.90;;;;;;5026079;28;20028;-76
2021/07/24 06:20:46;;;;;;;17.38;9.75;;;18.50;99.90;;;;;;5025507;28;20030;-75
2021/07/24 06:23:12;;;;;;;14.60;9.00;;;18.50;99.90;;;;;;5022443;28;20041;-75
2021/07/24 06:25:38;;;;;;;15.15;9.52;;;18.60;99.90;;;;;;5028873;28;20022;-75
2021/07/24 06:28:03;;;;;;;9.48;6.78;;;18.70;99.90;;;;;;5028907;28;20075;-75
2021/07/24 06:30:29;;;;;;;16.42;9.60;;;18.80;99.90;;;;;;5024501;28;20112;-75
2021/07/24 06:32:55;;;;;;;22.13;10.93;;;18.80;99.90;;;;;;5013405;28;20420;-75
2021/07/24 06:35:21;;;;;;;16.23;9.65;;;18.90;99.90;;;;;;5023648;28;20027;-75
2021/07/24 06:37:46;;;;;;;10.35;6.63;;;19.00;99.90;;;;;;5009146;28;20080;-75
2021/07/24 06:40:12;;;;;;;15.25;9.63;;;19.00;99.90;;;;;;5013442;28;20029;-75
2021/07/24 06:42:37;;;;;;;16.77;9.65;;;19.10;99.90;;;;;;5023728;28;20519;-75
2021/07/24 06:45:05;;;;;;;18.65;9.82;;;19.20;99.90;;;;;;5026438;28;20022;-75
2021/07/24 06:47:30;;;;;;;10.48;7.03;;;19.20;99.90;;;;;;5018115;28;20068;-75
2021/07/24 06:49:56;;;;;;;8.52;5.78;;;19.30;99.90;;;;;;5010024;28;20423;-75
2021/07/24 06:52:21;;;;;;;14.70;9.55;;;19.40;99.90;;;;;;5030241;28;20021;-74
2021/07/24 06:54:47;;;;;;;16.45;9.65;;;19.60;99.90;;;;;;5021037;28;20033;-74
2021/07/24 06:57:12;;;;;;;8.65;6.28;;;19.60;99.90;;;;;;5025119;28;20053;-75
2021/07/24 06:59:37;;;;;;;14.10;9.75;;;19.70;99.90;;;;;;5028631;28;20025;-74
2021/07/24 07:02:05;;;;;;;9.63;6.75;;;19.80;99.90;;;;;;5032177;28;20066;-75
2021/07/24 07:04:31;;;;;;;13.25;8.95;;;19.80;99.90;;;;;;5028233;28;20041;-75
2021/07/24 07:06:56;;;;;;;10.32;7.43;;;19.90;99.90;;;;;;5030794;28;20098;-76
2021/07/24 07:09:22;;;;;;;8.10;6.32;;;20.00;99.90;;;;;;5027316;28;20091;-74
2021/07/24 07:11:47;;;;;;;8.52;6.30;;;20.10;99.90;;;;;;5021573;28;20046;-74
2021/07/24 07:14:13;;;;;;;14.35;9.00;;;20.20;99.90;;;;;;5021140;28;20423;-75
2021/07/24 07:16:38;;;;;;;16.00;7.78;;;20.30;99.90;;;;;;5015072;28;20028;-75
2021/07/24 07:19:06;;;;;;;12.15;8.18;;;20.40;99.90;;;;;;5028336;28;20078;-75
2021/07/24 07:21:32;;;;;;;15.27;9.48;;;20.50;99.90;;;;;;5025767;28;20506;-74
2021/07/24 07:23:57;;;;;;;9.35;7.03;;;20.60;99.90;;;;;;5026329;28;20025;-75
2021/07/24 07:26:28;;;;;;;13.02;8.68;;;20.60;99.90;;;;;;5029721;28;20548;-75
2021/07/24 07:28:55;;;;;;;20.90;9.52;;;20.60;99.90;;;;;;5027180;28;20033;-75
2021/07/24 07:31:21;;;;;;;12.30;8.25;;;20.70;99.90;;;;;;5031182;28;20554;-75
2021/07/24 07:33:47;;;;;;;16.58;8.63;;;20.80;99.90;;;;;;5025680;28;20049;-75
2021/07/24 07:36:12;;;;;;;13.30;6.55;;;20.80;99.90;;;;;;5029608;28;20026;-75
2021/07/24 07:38:38;;;;;;;17.50;9.10;;;20.90;99.90;;;;;;5026907;28;20022;-75
2021/07/24 07:41:03;;;;;;;9.40;5.97;;;21.00;99.90;;;;;;5021379;28;20443;-74
2021/07/24 07:43:29;;;;;;;14.05;8.30;;;21.00;99.90;;;;;;5028711;28;21765;-75
2021/07/24 07:45:55;;;;;;;15.50;8.73;;;21.10;99.90;;;;;;5027757;28;20448;-73
2021/07/24 07:48:21;;;;;;;9.93;6.28;;;21.20;99.90;;;;;;5027777;28;20037;-73
2021/07/24 07:50:47;;;;;;;9.93;6.85;;;21.20;99.90;;;;;;5028320;28;20036;-71
2021/07/24 07:53:13;;;;;;;15.35;8.32;;;21.30;99.90;;;;;;5027284;28;20048;-75
2021/07/24 07:55:41;;;;;;;14.68;9.20;;;21.40;99.90;;;;;;5027112;28;20434;-75
2021/07/24 07:58:10;;;;;;;15.88;9.02;;;21.60;98.30;;;;;;5027322;28;20488;-76
2021/07/24 08:00:36;;;;;;;11.57;7.97;;;21.60;97.60;;;;;;5029979;28;20034;-75
2021/07/24 08:03:02;;;;;;;15.93;9.18;;;21.70;97.40;;;;;;5028742;28;20038;-77
2021/07/24 08:05:28;;;;;;;13.13;9.52;;;21.70;97.10;;;;;;5030277;28;20044;-76
2021/07/24 08:07:53;;;;;;;11.05;7.93;;;21.70;96.00;;;;;;5015603;28;20443;-76
2021/07/24 08:10:21;;;;;;;10.48;7.47;;;21.90;96.40;;;;;;5029108;28;20104;-76
2021/07/24 08:12:47;;;;;;;12.73;8.32;;;21.90;95.70;;;;;;5025935;28;20026;-76
2021/07/24 08:15:13;;;;;;;10.43;6.50;;;22.00;95.90;;;;;;5027743;28;20104;-77
2021/07/24 08:17:39;;;;;;;10.65;6.70;;;22.00;95.50;;;;;;5025523;28;20080;-77
2021/07/24 08:20:07;;;;;;;10.00;7.35;;;22.00;95.20;;;;;;5027906;28;20025;-77
2021/07/24 08:22:33;;;;;;;14.45;9.10;;;22.10;94.70;;;;;;5014528;28;20160;-77
2021/07/24 08:24:58;;;;;;;13.23;8.40;;;22.30;93.40;;;;;;5022541;28;20044;-78
2021/07/24 08:27:25;;;;;;;13.98;9.50;;;22.40;93.40;;;;;;5025129;28;20032;-78
2021/07/24 08:29:51;;;;;;;10.98;7.55;;;22.50;92.30;;;;;;5029590;28;20507;-78
2021/07/24 08:32:16;;;;;;;12.93;7.82;;;22.50;92.90;;;;;;5021079;28;20033;-77
2021/07/24 08:34:42;;;;;;;12.90;8.48;;;22.60;92.30;;;;;;5028629;28;20559;-79
2021/07/24 08:37:07;;;;;;;19.00;8.52;;;22.70;90.70;;;;;;5022801;28;20033;-77
2021/07/24 08:39:35;;;;;;;11.35;8.27;;;22.70;91.80;;;;;;5026538;28;20151;-76
2021/07/24 08:42:02;;;;;;;11.75;7.13;;;22.80;92.40;;;;;;5026636;28;20026;-75
2021/07/24 08:44:27;;;;;;;14.77;8.98;;;22.80;92.30;;;;;;5028452;28;20139;-76
2021/07/24 08:46:53;;;;;;;14.48;9.75;;;23.00;92.70;;;;;;5028592;28;20120;-76
2021/07/24 08:49:18;;;;;;;14.98;9.77;;;23.10;91.20;;;;;;5018135;28;20034;-77
2021/07/24 08:51:47;;;;;;;15.32;9.20;;;23.30;90.70;;;;;;5026561;28;20504;-76
2021/07/24 08:54:13;;;;;;;14.57;9.07;;;23.40;85.90;;;;;;5026604;28;20022;-76
2021/07/24 08:56:45;;;;;;;13.65;9.23;;;23.50;86.10;;;;;;5028620;28;20027;-77
2021/07/24 08:59:14;;;;;;;14.48;9.35;;;23.60;82.60;;;;;;5028347;28;20022;-77
2021/07/24 09:01:42;;;;;;;16.88;9.70;;;23.70;84.80;;;;;;5027858;28;20036;-77
2021/07/24 09:04:07;;;;;;;12.30;8.88;;;23.80;84.70;;;;;;5028487;28;20026;-78
2021/07/24 09:06:33;;;;;;;11.40;8.30;;;23.80;83.00;;;;;;5027864;28;20033;-77
2021/07/24 09:08:59;;;;;;;14.80;9.00;;;23.90;81.90;;;;;;5028961;28;20029;-77
2021/07/24 09:11:25;;;;;;;17.55;8.82;;;24.00;80.30;;;;;;5023892;28;20034;-77
2021/07/24 09:13:51;;;;;;;13.50;9.65;;;24.00;78.00;;;;;;5029071;28;20056;-76
2021/07/24 09:16:16;;;;;;;14.05;8.10;;;24.10;76.10;;;;;;5027146;28;20104;-76
2021/07/24 09:18:42;;;;;;;16.98;8.43;;;24.20;77.80;;;;;;5027599;28;20156;-77
2021/07/24 09:21:08;;;;;;;15.88;9.40;;;24.30;77.20;;;;;;5027581;28;20026;-76
2021/07/24 09:23:39;;;;;;;13.88;8.52;;;24.30;77.30;;;;;;5028020;28;20057;-76
2021/07/24 09:26:05;;;;;;;;;;;24.40;77.60;;;;;;5026381;28;20037;-76
2021/07/24 09:28:31;;;;;;;13.05;8.32;;;24.50;77.80;;;;;;5025567;28;19923;-75
2021/07/24 09:30:57;;;;;;;11.43;8.35;;;24.60;75.10;;;;;;5019566;28;20036;-76
2021/07/24 09:33:22;;;;;;;14.93;9.57;;;24.70;75.90;;;;;;5026438;28;20021;-75
2021/07/24 09:35:55;;;;;;;17.80;9.32;;;24.80;72.30;;;;;;5019186;28;20018;-78
2021/07/24 09:38:28;;;;;;;17.60;9.95;;;24.90;74.00;;;;;;5024286;28;20041;-75
2021/07/24 09:40:55;;;;;;;19.77;11.70;;;24.90;73.10;;;;;;5019662;28;20041;-78
2021/07/24 09:43:38;;;;;;;18.67;9.30;;;24.90;72.10;;;;;;5024779;28;20084;-77
2021/07/24 09:46:22;;;;;;;12.95;9.13;;;25.00;68.30;;;;;;5027496;28;20103;-74
2021/07/24 09:48:51;;;;;;;14.63;8.52;;;25.10;71.70;;;;;;5027889;28;20090;-76
2021/07/24 09:51:34;;;;;;;14.50;9.20;;;25.20;71.70;;;;;;5023695;28;20555;-76
2021/07/24 09:53:59;;;;;;;17.73;8.55;;;25.30;69.70;;;;;;5025474;28;20104;-75
2021/07/24 09:56:57;;;;;;;16.83;9.63;;;25.30;68.40;;;;;;5024292;28;20104;-76
2021/07/24 09:59:28;;;;;;;18.48;10.38;;;25.40;66.60;;;;;;5002096;28;20040;-76
2021/07/24 10:01:54;;;;;;;13.73;9.05;;;25.60;67.20;;;;;;5027920;28;20083;-76
2021/07/24 10:04:32;;;;;;;14.15;9.10;;;25.70;67.50;;;;;;5024313;28;20078;-75
2021/07/24 10:07:08;;;;;;;13.40;8.40;;;25.60;64.60;;;;;;5025978;28;20171;-74
2021/07/24 10:09:36;;;;;;;12.35;8.82;;;25.70;64.80;;;;;;5019738;28;20029;-76
2021/07/24 10:12:06;;;;;;;14.38;8.80;;;25.60;66.70;;;;;;5027029;28;20301;-76
2021/07/24 10:14:34;;;;;;;13.27;8.85;;;25.70;67.70;;;;;;5016806;28;20109;-77
2021/07/24 10:16:59;;;;;;;15.43;9.60;;;25.80;67.50;;;;;;5020436;28;20515;-76
2021/07/24 10:19:26;;;;;;;13.32;8.65;;;25.80;67.60;;;;;;5025431;28;20030;-73
2021/07/24 10:21:55;;;;;;;17.98;8.88;;;25.90;64.30;;;;;;5016359;28;20664;-77
2021/07/24 10:24:21;;;;;;;13.90;8.73;;;26.00;64.60;;;;;;5025029;28;20049;-76
2021/07/24 10:27:02;;;;;;;16.42;9.18;;;26.10;66.90;;;;;;5022992;28;20451;-76
2021/07/24 10:29:32;;;;;;;16.10;8.55;;;26.10;65.00;;;;;;5025829;28;20041;-76
2021/07/24 10:32:07;;;;;;;15.45;8.80;;;26.10;65.20;;;;;;5023101;28;20087;-77
2021/07/24 10:34:34;;;;;;;14.68;8.80;;;26.00;69.10;;;;;;5016891;28;20037;-76
2021/07/24 10:37:00;;;;;;;13.82;9.20;;;26.10;65.70;;;;;;5029059;28;20056;-76
2021/07/24 10:39:25;;;;;;;17.20;9.40;;;26.30;65.10;;;;;;5016452;28;20034;-78
2021/07/24 10:41:52;;;;;;;15.32;9.00;;;26.40;66.00;;;;;;5017880;28;20117;-74
2021/07/24 10:44:40;;;;;;;15.55;8.85;;;26.50;65.10;;;;;;5028388;28;20032;-76
2021/07/24 10:47:15;;;;;;;12.45;8.95;;;26.60;62.90;;;;;;5027584;28;20041;-76
2021/07/24 10:50:02;;;;;;;15.23;8.80;;;26.80;62.20;;;;;;5015996;28;20113;-76
2021/07/24 10:53:06;;;;;;;11.45;8.07;;;26.90;62.40;;;;;;5015261;28;20587;-75
2021/07/24 10:55:38;;;;;;;13.60;8.45;;;27.00;63.10;;;;;;5027626;28;20108;-81
2021/07/24 10:58:05;;;;;;;12.52;8.13;;;27.00;60.90;;;;;;5014629;28;20029;-73
2021/07/24 11:00:32;;;;;;;13.90;9.18;;;27.00;63.20;;;;;;5024751;28;20033;-74
2021/07/24 11:02:57;;;;;;;13.95;9.70;;;26.90;65.20;;;;;;5021714;28;20112;-73
2021/07/24 11:05:23;;;;;;;13.90;8.48;;;27.10;62.70;;;;;;5025337;28;20459;-74
2021/07/24 11:07:49;;;;;;;37.58;16.05;;;27.30;61.70;;;;;;5009142;28;20261;-73
2021/07/24 11:10:15;;;;;;;10.27;8.00;;;27.40;62.00;;;;;;5026193;28;20503;-73
2021/07/24 11:12:41;;;;;;;12.05;8.18;;;27.50;61.00;;;;;;5027846;28;20072;-73
2021/07/24 11:15:08;;;;;;;11.90;8.27;;;27.50;60.10;;;;;;5019283;28;20065;-74
2021/07/24 11:17:33;;;;;;;11.80;8.60;;;27.60;59.50;;;;;;5022225;28;20156;-74
2021/07/24 11:19:59;;;;;;;15.18;8.77;;;27.70;58.60;;;;;;5027541;28;20515;-74
2021/07/24 11:22:29;;;;;;;12.32;8.40;;;27.80;59.30;;;;;;5024850;28;20037;-72
2021/07/24 11:24:54;;;;;;;43.17;16.58;;;28.00;58.10;;;;;;5025487;28;20037;-74
2021/07/24 11:27:23;;;;;;;14.57;8.95;;;28.20;58.70;;;;;;5025374;28;20042;-72
2021/07/24 11:29:48;;;;;;;19.27;10.05;;;28.50;55.80;;;;;;5024061;28;20035;-73
2021/07/24 11:32:15;;;;;;;26.08;10.18;;;28.60;56.40;;;;;;5023903;28;20025;-78
2021/07/24 11:34:45;;;;;;;20.00;10.48;;;28.80;57.40;;;;;;5017344;28;20026;-73
2021/07/24 11:37:11;;;;;;;13.82;8.23;;;29.00;55.90;;;;;;5022285;28;20052;-75
2021/07/24 11:39:36;;;;;;;21.50;9.23;;;29.00;56.70;;;;;;5017585;28;20034;-75
2021/07/24 11:42:02;;;;;;;12.15;8.07;;;29.20;56.40;;;;;;5026789;28;20029;-75
2021/07/24 11:44:31;;;;;;;12.77;7.95;;;29.60;53.00;;;;;;5028434;28;20480;-75
2021/07/24 11:47:04;;;;;;;12.52;8.32;;;30.20;51.90;;;;;;5023487;28;20096;-74
2021/07/24 11:49:31;;;;;;;16.10;8.57;;;30.70;54.10;;;;;;5030553;28;20111;-74
2021/07/24 11:51:57;;;;;;;12.05;8.80;;;31.10;51.80;;;;;;5027633;28;20021;-75
2021/07/24 11:54:30;;;;;;;20.83;10.32;;;31.50;49.90;;;;;;5023942;28;20078;-75
2021/07/24 11:56:55;;;;;;;16.10;8.85;;;31.90;50.10;;;;;;5028080;28;20068;-74
2021/07/24 11:59:21;;;;;;;12.98;8.40;;;32.30;50.50;;;;;;5022764;28;20228;-71
2021/07/24 12:01:47;;;;;;;20.13;8.55;;;32.60;47.90;;;;;;5019704;28;20109;-71
2021/07/24 12:04:13;;;;;;;12.25;8.38;;;32.70;47.60;;;;;;5028886;28;20033;-72
2021/07/24 12:06:50;;;;;;;13.25;8.77;;;32.10;48.10;;;;;;5023578;28;20052;-73
2021/07/24 12:09:17;;;;;;;13.38;8.10;;;31.50;49.80;;;;;;5029845;28;20064;-73
2021/07/24 12:11:54;;;;;;;11.93;8.15;;;31.40;49.50;;;;;;5029785;28;20033;-75
2021/07/24 12:14:22;;;;;;;12.38;8.75;;;30.90;50.30;;;;;;5025980;28;20087;-74
2021/07/24 12:16:47;;;;;;;15.45;8.70;;;30.40;50.10;;;;;;5027120;28;20045;-74
2021/07/24 12:19:17;;;;;;;12.90;8.60;;;30.00;51.00;;;;;;5024922;28;20374;-75
2021/07/24 12:21:45;;;;;;;12.57;8.83;;;29.90;53.50;;;;;;5028114;28;20033;-74
2021/07/24 12:24:10;;;;;;;12.48;8.50;;;30.90;51.40;;;;;;5027490;28;20112;-73
2021/07/24 12:26:44;;;;;;;12.65;8.48;;;31.90;49.30;;;;;;5031200;28;20116;-76
2021/07/24 12:29:10;;;;;;;12.70;8.25;;;33.00;51.20;;;;;;5023173;28;20065;-76
2021/07/24 12:31:43;;;;;;;13.40;8.32;;;33.40;48.00;;;;;;5025876;28;20484;-76
2021/07/24 12:34:23;;;;;;;11.80;8.23;;;34.10;47.50;;;;;;5023178;28;20061;-73
2021/07/24 12:36:57;;;;;;;11.63;8.88;;;34.40;44.70;;;;;;5026019;28;20029;-72
2021/07/24 12:39:33;;;;;;;11.40;8.40;;;33.60;46.50;;;;;;5022452;28;20082;-73